createdAt,value
2024-02-08T00:00:43.877Z,0
2024-02-08T00:01:43.931Z,0
2024-02-08T00:02:43.883Z,0
2024-02-08T00:03:43.864Z,0
2024-02-08T00:04:43.920Z,0
2024-02-08T00:05:43.942Z,0
2024-02-08T00:06:43.886Z,0
2024-02-08T00:07:43.868Z,0
2024-02-08T00:08:43.859Z,0
2024-02-08T00:09:43.862Z,0
2024-02-08T00:10:43.927Z,0
2024-02-08T00:11:43.868Z,0
2024-02-08T00:12:43.865Z,0
2024-02-08T00:13:43.886Z,0
2024-02-08T00:14:43.867Z,0
2024-02-08T00:15:43.873Z,0
2024-02-08T00:16:43.912Z,0
2024-02-08T00:17:43.904Z,0
2024-02-08T00:18:43.946Z,0
2024-02-08T00:19:43.897Z,0
2024-02-08T00:20:43.872Z,0
2024-02-08T00:21:43.870Z,0
2024-02-08T00:22:43.895Z,0
2024-02-08T00:23:43.870Z,0
2024-02-08T00:24:43.879Z,0
2024-02-08T00:25:43.942Z,0
2024-02-08T00:26:43.879Z,0
2024-02-08T00:27:43.881Z,0
2024-02-08T00:28:43.891Z,0
2024-02-08T00:29:44.752Z,0
2024-02-08T00:30:43.884Z,0
2024-02-08T00:31:43.883Z,0
2024-02-08T00:32:43.884Z,0
2024-02-08T00:33:43.885Z,0
2024-02-08T00:34:44.044Z,0
2024-02-08T00:35:43.919Z,0
2024-02-08T00:36:43.878Z,0
2024-02-08T00:37:43.892Z,0
2024-02-08T00:38:43.923Z,0
2024-02-08T00:39:44.136Z,0
2024-02-08T00:40:43.905Z,0
2024-02-08T00:41:43.876Z,0
2024-02-08T00:42:43.880Z,0
2024-02-08T00:43:43.936Z,0
2024-02-08T00:44:43.877Z,0
2024-02-08T00:45:43.899Z,0
2024-02-08T00:46:43.915Z,0
2024-02-08T00:47:43.920Z,0
2024-02-08T00:48:43.910Z,0
2024-02-08T00:49:43.918Z,0
2024-02-08T00:50:43.912Z,0
2024-02-08T00:51:43.884Z,0
2024-02-08T00:52:43.920Z,0
2024-02-08T00:53:43.888Z,0
2024-02-08T00:54:43.891Z,0
2024-02-08T00:55:43.900Z,0
2024-02-08T00:56:43.888Z,0
2024-02-08T00:57:43.894Z,0
2024-02-08T00:58:43.896Z,0
2024-02-08T00:59:43.888Z,0
2024-02-08T01:00:43.902Z,0
2024-02-08T01:01:43.935Z,0
2024-02-08T01:02:43.898Z,0
2024-02-08T01:03:43.944Z,0
2024-02-08T01:04:43.936Z,0
2024-02-08T01:05:43.949Z,0
2024-02-08T01:06:43.931Z,0
2024-02-08T01:07:43.984Z,0
2024-02-08T01:08:43.896Z,0
2024-02-08T01:09:43.895Z,0
2024-02-08T01:10:43.909Z,0
2024-02-08T01:11:43.902Z,0
2024-02-08T01:12:43.895Z,0
2024-02-08T01:13:43.905Z,0
2024-02-08T01:14:43.896Z,0
2024-02-08T01:15:43.897Z,0
2024-02-08T01:16:43.912Z,0
2024-02-08T01:17:44.021Z,0
2024-02-08T01:18:43.906Z,0
2024-02-08T01:19:43.938Z,0
2024-02-08T01:20:43.898Z,0
2024-02-08T01:21:43.902Z,0
2024-02-08T01:22:43.955Z,0
2024-02-08T01:23:43.903Z,0
2024-02-08T01:24:43.906Z,0
2024-02-08T01:25:43.942Z,0
2024-02-08T01:26:43.914Z,0
2024-02-08T01:27:43.907Z,0
2024-02-08T01:28:43.910Z,0
2024-02-08T01:29:43.910Z,0
2024-02-08T01:30:43.908Z,0
2024-02-08T01:31:43.939Z,0
2024-02-08T01:32:43.948Z,0
2024-02-08T01:33:43.922Z,0
2024-02-08T01:34:43.936Z,0
2024-02-08T01:35:43.917Z,0
2024-02-08T01:36:43.913Z,0
2024-02-08T01:37:43.913Z,0
2024-02-08T01:38:43.967Z,0
2024-02-08T01:39:43.915Z,0
2024-02-08T01:40:43.929Z,0
2024-02-08T01:41:43.915Z,0
2024-02-08T01:42:43.915Z,0
2024-02-08T01:43:43.939Z,0
2024-02-08T01:44:43.919Z,0
2024-02-08T01:45:43.916Z,0
2024-02-08T01:46:43.949Z,0
2024-02-08T01:47:43.955Z,0
2024-02-08T01:48:43.938Z,0
2024-02-08T01:49:43.929Z,0
2024-02-08T01:50:43.920Z,0
2024-02-08T01:51:43.921Z,0
2024-02-08T01:52:43.947Z,0
2024-02-08T01:53:43.923Z,0
2024-02-08T01:54:43.944Z,0
2024-02-08T01:55:43.948Z,0
2024-02-08T01:56:43.922Z,0
2024-02-08T01:57:43.919Z,0
2024-02-08T01:58:43.949Z,0
2024-02-08T01:59:43.936Z,0
2024-02-08T02:00:43.934Z,0
2024-02-08T02:01:43.974Z,0
2024-02-08T02:02:43.925Z,0
2024-02-08T02:03:43.968Z,0
2024-02-08T02:04:43.940Z,0
2024-02-08T02:05:44.118Z,0
2024-02-08T02:06:43.973Z,0
2024-02-08T02:07:43.944Z,0
2024-02-08T02:08:43.932Z,0
2024-02-08T02:09:44.034Z,0
2024-02-08T02:10:43.977Z,0
2024-02-08T02:11:43.953Z,0
2024-02-08T02:12:43.938Z,0
2024-02-08T02:13:43.962Z,0
2024-02-08T02:14:43.936Z,0
2024-02-08T02:15:43.942Z,0
2024-02-08T02:16:43.955Z,0
2024-02-08T02:17:43.961Z,0
2024-02-08T02:18:43.979Z,0
2024-02-08T02:19:44.057Z,0
2024-02-08T02:20:43.944Z,0
2024-02-08T02:21:43.950Z,0
2024-02-08T02:22:44.417Z,0
2024-02-08T02:23:43.952Z,0
2024-02-08T02:24:43.955Z,0
2024-02-08T02:25:43.975Z,0
2024-02-08T02:26:43.986Z,0
2024-02-08T02:27:43.962Z,0
2024-02-08T02:28:43.977Z,0
2024-02-08T02:29:43.958Z,0
2024-02-08T02:30:43.962Z,0
2024-02-08T02:31:43.977Z,0
2024-02-08T02:32:44.023Z,0
2024-02-08T02:33:43.989Z,0
2024-02-08T02:34:44.074Z,0
2024-02-08T02:35:43.968Z,0
2024-02-08T02:36:43.984Z,0
2024-02-08T02:37:44.037Z,0
2024-02-08T02:38:43.981Z,0
2024-02-08T02:39:43.975Z,0
2024-02-08T02:40:43.997Z,0
2024-02-08T02:41:43.974Z,0
2024-02-08T02:42:44.012Z,0
2024-02-08T02:43:43.991Z,0
2024-02-08T02:44:44.006Z,0
2024-02-08T02:45:43.984Z,0
2024-02-08T02:46:44.003Z,0
2024-02-08T02:47:44.045Z,0
2024-02-08T02:48:44.009Z,0
2024-02-08T02:49:44.013Z,0
2024-02-08T02:50:44.210Z,0
2024-02-08T02:51:43.984Z,0
2024-02-08T02:52:44.017Z,0
2024-02-08T02:53:43.982Z,0
2024-02-08T02:54:43.989Z,0
2024-02-08T02:55:44.016Z,0
2024-02-08T02:56:43.988Z,0
2024-02-08T02:57:43.992Z,0
2024-02-08T02:58:44.042Z,0
2024-02-08T02:59:43.987Z,0
2024-02-08T03:00:43.990Z,0
2024-02-08T03:01:44.041Z,0
2024-02-08T03:02:43.993Z,0
2024-02-08T03:03:44.034Z,0
2024-02-08T03:04:44.020Z,0
2024-02-08T03:05:44.029Z,0
2024-02-08T03:06:44.005Z,0
2024-02-08T03:07:44.042Z,0
2024-02-08T03:08:44.221Z,0
2024-02-08T03:09:44.003Z,0
2024-02-08T03:10:44.105Z,0
2024-02-08T03:11:44.000Z,0
2024-02-08T03:12:44.009Z,0
2024-02-08T03:13:44.287Z,0
2024-02-08T03:14:44.034Z,0
2024-02-08T03:15:44.001Z,0
2024-02-08T03:16:44.026Z,0
2024-02-08T03:17:44.045Z,0
2024-02-08T03:18:44.023Z,0
2024-02-08T03:19:44.024Z,0
2024-02-08T03:20:44.011Z,0
2024-02-08T03:21:44.017Z,0
2024-02-08T03:22:44.017Z,0
2024-02-08T03:23:44.014Z,0
2024-02-08T03:24:44.012Z,0
2024-02-08T03:25:44.079Z,0
2024-02-08T03:26:44.019Z,0
2024-02-08T03:27:44.034Z,0
2024-02-08T03:28:44.089Z,0
2024-02-08T03:29:44.017Z,0
2024-02-08T03:30:44.199Z,0
2024-02-08T03:31:44.053Z,0
2024-02-08T03:32:44.043Z,0
2024-02-08T03:33:44.046Z,0
2024-02-08T03:34:44.102Z,0
2024-02-08T03:35:44.031Z,0
2024-02-08T03:36:44.025Z,0
2024-02-08T03:37:44.033Z,0
2024-02-08T03:38:44.023Z,0
2024-02-08T03:39:44.025Z,0
2024-02-08T03:40:44.056Z,0
2024-02-08T03:41:44.025Z,0
2024-02-08T03:42:44.027Z,0
2024-02-08T03:43:44.024Z,0
2024-02-08T03:44:44.026Z,0
2024-02-08T03:45:44.028Z,0
2024-02-08T03:46:44.076Z,0
2024-02-08T03:47:44.074Z,0
2024-02-08T03:48:44.103Z,0
2024-02-08T03:49:44.061Z,0
2024-02-08T03:50:44.030Z,0
2024-02-08T03:51:44.049Z,0
2024-02-08T03:52:44.061Z,0
2024-02-08T03:53:44.035Z,0
2024-02-08T03:54:44.045Z,0
2024-02-08T03:55:44.063Z,0
2024-02-08T03:56:44.044Z,0
2024-02-08T03:57:44.043Z,0
2024-02-08T03:58:44.060Z,0
2024-02-08T03:59:44.053Z,0
2024-02-08T04:00:44.053Z,0
2024-02-08T04:01:44.136Z,0
2024-02-08T04:02:44.116Z,0
2024-02-08T04:03:44.063Z,0
2024-02-08T04:04:44.081Z,0
2024-02-08T04:05:44.212Z,0
2024-02-08T04:06:44.069Z,0
2024-02-08T04:07:44.067Z,0
2024-02-08T04:08:44.068Z,0
2024-02-08T04:09:44.065Z,0
2024-02-08T04:10:44.091Z,0
2024-02-08T04:11:44.058Z,0
2024-02-08T04:12:44.060Z,0
2024-02-08T04:13:44.080Z,0
2024-02-08T04:14:44.065Z,0
2024-02-08T04:15:44.071Z,0
2024-02-08T04:16:44.109Z,0
2024-02-08T04:17:44.125Z,0
2024-02-08T04:18:44.113Z,0
2024-02-08T04:19:44.105Z,0
2024-02-08T04:20:44.083Z,0
2024-02-08T04:21:44.105Z,0
2024-02-08T04:22:44.095Z,0
2024-02-08T04:23:44.076Z,0
2024-02-08T04:24:44.066Z,0
2024-02-08T04:25:44.132Z,0
2024-02-08T04:26:44.079Z,0
2024-02-08T04:27:44.078Z,0
2024-02-08T04:28:44.080Z,0
2024-02-08T04:29:44.081Z,0
2024-02-08T04:30:44.080Z,0
2024-02-08T04:31:44.157Z,0
2024-02-08T04:32:44.127Z,0
2024-02-08T04:33:44.190Z,0
2024-02-08T04:34:44.126Z,0
2024-02-08T04:35:44.083Z,0
2024-02-08T04:36:44.081Z,0
2024-02-08T04:37:44.135Z,0
2024-02-08T04:38:44.088Z,0
2024-02-08T04:39:44.086Z,0
2024-02-08T04:40:44.100Z,0
2024-02-08T04:41:44.085Z,0
2024-02-08T04:42:44.092Z,0
2024-02-08T04:43:44.099Z,0
2024-02-08T04:44:44.088Z,0
2024-02-08T04:45:46.234Z,0
2024-02-08T04:46:44.156Z,0
2024-02-08T04:47:44.113Z,0
2024-02-08T04:48:44.138Z,0
2024-02-08T04:49:44.097Z,0
2024-02-08T04:50:44.131Z,0
2024-02-08T04:51:44.099Z,0
2024-02-08T04:52:44.115Z,0
2024-02-08T04:53:44.097Z,0
2024-02-08T04:54:44.098Z,0
2024-02-08T04:55:44.138Z,0
2024-02-08T04:56:44.110Z,0
2024-02-08T04:57:44.109Z,0
2024-02-08T04:58:57.837Z,0
2024-02-08T04:59:44.142Z,0
2024-02-08T05:00:44.115Z,0
2024-02-08T05:01:44.103Z,0
2024-02-08T05:02:44.119Z,0
2024-02-08T05:03:44.172Z,0
2024-02-08T05:04:44.739Z,0
2024-02-08T05:05:44.244Z,0
2024-02-08T05:06:44.195Z,0
2024-02-08T05:07:44.134Z,0
2024-02-08T05:08:44.116Z,0
2024-02-08T05:09:44.185Z,0
2024-02-08T05:10:44.127Z,0
2024-02-08T05:11:44.112Z,0
2024-02-08T05:12:44.126Z,0
2024-02-08T05:13:44.119Z,0
2024-02-08T05:14:44.118Z,0
2024-02-08T05:15:44.246Z,0
2024-02-08T05:16:44.121Z,0
2024-02-08T05:17:44.123Z,0
2024-02-08T05:18:44.211Z,0
2024-02-08T05:19:44.123Z,0
2024-02-08T05:20:44.127Z,0
2024-02-08T05:21:44.153Z,0
2024-02-08T05:22:44.172Z,0
2024-02-08T05:23:44.121Z,0
2024-02-08T05:24:44.160Z,0
2024-02-08T05:25:44.177Z,0
2024-02-08T05:26:44.117Z,0
2024-02-08T05:27:44.141Z,0
2024-02-08T05:28:44.124Z,0
2024-02-08T05:29:44.120Z,0
2024-02-08T05:30:44.127Z,0
2024-02-08T05:31:44.128Z,0
2024-02-08T05:32:44.192Z,0
2024-02-08T05:33:44.283Z,0
2024-02-08T05:34:44.182Z,0
2024-02-08T05:35:44.128Z,0
2024-02-08T05:36:44.185Z,0
2024-02-08T05:37:44.137Z,0
2024-02-08T05:38:44.171Z,0
2024-02-08T05:39:44.138Z,0
2024-02-08T05:40:44.127Z,0
2024-02-08T05:41:44.132Z,0
2024-02-08T05:42:44.166Z,0
2024-02-08T05:43:44.135Z,0
2024-02-08T05:44:44.142Z,0
2024-02-08T05:45:44.137Z,0
2024-02-08T05:46:44.132Z,0
2024-02-08T05:47:44.162Z,0
2024-02-08T05:48:44.240Z,0
2024-02-08T05:49:44.196Z,0
2024-02-08T05:50:44.147Z,0
2024-02-08T05:51:44.174Z,0
2024-02-08T05:52:44.149Z,0
2024-02-08T05:53:44.146Z,0
2024-02-08T05:54:44.180Z,0
2024-02-08T05:55:44.148Z,0
2024-02-08T05:56:44.144Z,0
2024-02-08T05:57:44.150Z,0
2024-02-08T05:58:44.145Z,0
2024-02-08T05:59:44.148Z,0
2024-02-08T06:00:44.196Z,0
2024-02-08T06:01:44.205Z,0
2024-02-08T06:02:44.146Z,0
2024-02-08T06:03:44.171Z,0
2024-02-08T06:04:44.207Z,0
2024-02-08T06:05:44.146Z,0
2024-02-08T06:06:44.172Z,0
2024-02-08T06:07:44.230Z,0
2024-02-08T06:08:44.156Z,0
2024-02-08T06:09:44.165Z,0
2024-02-08T06:10:44.169Z,0
2024-02-08T06:11:44.150Z,0
2024-02-08T06:12:44.931Z,1
2024-02-08T06:13:44.152Z,1
2024-02-08T06:14:44.153Z,1
2024-02-08T06:15:44.296Z,1
2024-02-08T06:16:44.169Z,1
2024-02-08T06:17:44.163Z,2
2024-02-08T06:18:44.194Z,2
2024-02-08T06:19:44.201Z,2
2024-02-08T06:20:44.160Z,2
2024-02-08T06:21:44.261Z,2
2024-02-08T06:22:44.171Z,4
2024-02-08T06:23:44.164Z,4
2024-02-08T06:24:44.197Z,4
2024-02-08T06:25:44.170Z,4
2024-02-08T06:26:44.230Z,4
2024-02-08T06:27:44.175Z,8
2024-02-08T06:28:44.164Z,8
2024-02-08T06:29:44.193Z,8
2024-02-08T06:30:44.191Z,8
2024-02-08T06:31:44.200Z,8
2024-02-08T06:32:44.219Z,13
2024-02-08T06:33:44.408Z,13
2024-02-08T06:34:44.269Z,13
2024-02-08T06:35:44.172Z,13
2024-02-08T06:36:44.176Z,13
2024-02-08T06:37:44.172Z,17
2024-02-08T06:38:44.177Z,17
2024-02-08T06:39:44.212Z,17
2024-02-08T06:40:44.173Z,17
2024-02-08T06:41:44.174Z,17
2024-02-08T06:42:44.224Z,20
2024-02-08T06:43:44.177Z,20
2024-02-08T06:44:44.177Z,20
2024-02-08T06:45:44.218Z,20
2024-02-08T06:46:44.176Z,20
2024-02-08T06:47:44.219Z,32
2024-02-08T06:48:44.254Z,32
2024-02-08T06:49:44.185Z,32
2024-02-08T06:50:44.181Z,32
2024-02-08T06:51:44.206Z,32
2024-02-08T06:52:44.179Z,43
2024-02-08T06:53:44.183Z,43
2024-02-08T06:54:44.228Z,43
2024-02-08T06:55:44.185Z,43
2024-02-08T06:56:44.186Z,43
2024-02-08T06:57:44.209Z,68
2024-02-08T06:58:44.210Z,68
2024-02-08T06:59:44.183Z,68
2024-02-08T07:00:44.235Z,68
2024-02-08T07:01:44.221Z,68
2024-02-08T07:02:44.187Z,66
2024-02-08T07:03:44.231Z,66
2024-02-08T07:04:44.204Z,66
2024-02-08T07:05:44.185Z,66
2024-02-08T07:06:44.228Z,66
2024-02-08T07:07:44.238Z,76
2024-02-08T07:08:44.647Z,76
2024-02-08T07:09:44.215Z,76
2024-02-08T07:10:44.292Z,76
2024-02-08T07:11:44.181Z,76
2024-02-08T07:12:44.203Z,113
2024-02-08T07:13:44.184Z,113
2024-02-08T07:14:44.213Z,113
2024-02-08T07:15:44.241Z,113
2024-02-08T07:16:44.192Z,113
2024-02-08T07:17:44.204Z,142
2024-02-08T07:18:48.805Z,142
2024-02-08T07:19:44.233Z,142
2024-02-08T07:20:44.200Z,142
2024-02-08T07:21:44.236Z,142
2024-02-08T07:22:44.190Z,186
2024-02-08T07:23:44.181Z,186
2024-02-08T07:24:44.265Z,186
2024-02-08T07:25:44.234Z,186
2024-02-08T07:26:44.188Z,186
2024-02-08T07:27:44.199Z,245
2024-02-08T07:28:44.197Z,245
2024-02-08T07:29:44.195Z,245
2024-02-08T07:30:44.273Z,245
2024-02-08T07:31:44.214Z,245
2024-02-08T07:32:44.201Z,287
2024-02-08T07:33:44.322Z,287
2024-02-08T07:34:44.290Z,287
2024-02-08T07:35:44.207Z,287
2024-02-08T07:36:44.197Z,287
2024-02-08T07:37:44.202Z,290
2024-02-08T07:38:44.196Z,290
2024-02-08T07:39:44.227Z,290
2024-02-08T07:40:44.198Z,290
2024-02-08T07:41:44.193Z,290
2024-02-08T07:42:44.242Z,383
2024-02-08T07:43:44.203Z,383
2024-02-08T07:44:44.205Z,383
2024-02-08T07:45:44.223Z,383
2024-02-08T07:46:44.279Z,383
2024-02-08T07:47:44.246Z,527
2024-02-08T07:48:44.520Z,527
2024-02-08T07:49:44.904Z,527
2024-02-08T07:50:44.216Z,527
2024-02-08T07:51:44.244Z,527
2024-02-08T07:52:44.218Z,782
2024-02-08T07:53:44.212Z,782
2024-02-08T07:54:44.246Z,782
2024-02-08T07:55:44.223Z,782
2024-02-08T07:56:44.229Z,782
2024-02-08T07:57:44.243Z,901
2024-02-08T07:58:44.257Z,901
2024-02-08T07:59:44.293Z,901
2024-02-08T08:00:44.377Z,901
2024-02-08T08:01:44.280Z,901
2024-02-08T08:02:44.245Z,701
2024-02-08T08:03:44.272Z,701
2024-02-08T08:04:45.166Z,701
2024-02-08T08:05:44.274Z,701
2024-02-08T08:06:44.255Z,701
2024-02-08T08:07:44.262Z,706
2024-02-08T08:08:44.223Z,706
2024-02-08T08:09:44.264Z,706
2024-02-08T08:10:44.230Z,706
2024-02-08T08:11:44.259Z,706
2024-02-08T08:12:44.443Z,620
2024-02-08T08:13:44.237Z,620
2024-02-08T08:14:44.237Z,620
2024-02-08T08:15:44.284Z,620
2024-02-08T08:16:44.241Z,620
2024-02-08T08:17:44.581Z,679
2024-02-08T08:18:44.307Z,679
2024-02-08T08:19:44.272Z,679
2024-02-08T08:20:44.231Z,679
2024-02-08T08:21:44.254Z,679
2024-02-08T08:22:44.284Z,788
2024-02-08T08:23:44.235Z,788
2024-02-08T08:24:44.378Z,788
2024-02-08T08:25:44.270Z,788
2024-02-08T08:26:44.242Z,788
2024-02-08T08:27:44.247Z,746
2024-02-08T08:28:44.273Z,746
2024-02-08T08:29:44.442Z,746
2024-02-08T08:30:44.255Z,746
2024-02-08T08:31:44.243Z,746
2024-02-08T08:32:44.267Z,758
2024-02-08T08:33:44.327Z,758
2024-02-08T08:34:44.323Z,758
2024-02-08T08:35:44.296Z,758
2024-02-08T08:36:44.268Z,758
2024-02-08T08:37:44.250Z,743
2024-02-08T08:38:44.253Z,743
2024-02-08T08:39:44.295Z,743
2024-02-08T08:40:44.292Z,743
2024-02-08T08:41:44.276Z,743
2024-02-08T08:42:45.889Z,836
2024-02-08T08:43:44.368Z,836
2024-02-08T08:44:44.267Z,836
2024-02-08T08:45:44.295Z,836
2024-02-08T08:46:44.307Z,836
2024-02-08T08:47:44.308Z,1016
2024-02-08T08:48:44.503Z,1016
2024-02-08T08:49:44.339Z,1016
2024-02-08T08:50:44.301Z,1016
2024-02-08T08:51:44.546Z,1016
2024-02-08T08:52:44.275Z,1477
2024-02-08T08:53:44.270Z,1477
2024-02-08T08:54:44.346Z,1477
2024-02-08T08:55:44.342Z,1477
2024-02-08T08:56:44.361Z,1477
2024-02-08T08:57:44.329Z,1187
2024-02-08T08:58:45.967Z,1187
2024-02-08T08:59:44.408Z,1187
2024-02-08T09:00:44.383Z,1187
2024-02-08T09:01:44.676Z,1187
2024-02-08T09:02:44.283Z,2177
2024-02-08T09:03:44.359Z,2177
2024-02-08T09:04:44.343Z,2177
2024-02-08T09:05:44.302Z,2177
2024-02-08T09:06:44.479Z,2177
2024-02-08T09:07:44.374Z,2017
2024-02-08T09:08:44.331Z,2017
2024-02-08T09:09:44.355Z,2017
2024-02-08T09:10:44.424Z,2017
2024-02-08T09:11:44.285Z,2017
2024-02-08T09:12:44.306Z,2139
2024-02-08T09:13:44.307Z,2139
2024-02-08T09:14:44.292Z,2139
2024-02-08T09:15:44.342Z,2139
2024-02-08T09:16:44.318Z,2139
2024-02-08T09:17:44.318Z,1685
2024-02-08T09:18:44.440Z,1685
2024-02-08T09:19:44.408Z,1685
2024-02-08T09:20:44.306Z,1685
2024-02-08T09:21:45.240Z,1685
2024-02-08T09:22:44.397Z,1313
2024-02-08T09:23:44.304Z,1313
2024-02-08T09:24:44.425Z,1313
2024-02-08T09:25:44.321Z,1313
2024-02-08T09:26:44.314Z,1313
2024-02-08T09:27:44.541Z,1147
2024-02-08T09:28:44.649Z,1147
2024-02-08T09:29:44.331Z,1147
2024-02-08T09:30:44.370Z,1147
2024-02-08T09:31:44.322Z,1147
2024-02-08T09:32:44.351Z,1189
2024-02-08T09:33:44.376Z,1189
2024-02-08T09:34:44.558Z,1189
2024-02-08T09:35:44.369Z,1189
2024-02-08T09:36:44.347Z,1189
2024-02-08T09:37:44.347Z,1314
2024-02-08T09:38:44.934Z,1314
2024-02-08T09:39:46.196Z,1314
2024-02-08T09:40:44.484Z,1314
2024-02-08T09:41:44.334Z,1314
2024-02-08T09:42:44.348Z,1621
2024-02-08T09:43:44.330Z,1621
2024-02-08T09:44:44.335Z,1621
2024-02-08T09:45:44.386Z,1621
2024-02-08T09:46:44.372Z,1621
2024-02-08T09:47:44.358Z,1852
2024-02-08T09:48:44.418Z,1852
2024-02-08T09:49:44.420Z,1852
2024-02-08T09:50:44.346Z,1852
2024-02-08T09:51:44.501Z,1852
2024-02-08T09:52:48.277Z,2713
2024-02-08T09:53:44.432Z,2713
2024-02-08T09:54:44.424Z,2713
2024-02-08T09:55:44.353Z,2713
2024-02-08T09:56:44.353Z,2713
2024-02-08T09:57:44.361Z,2302
2024-02-08T09:58:47.690Z,2302
2024-02-08T09:59:44.355Z,2302
2024-02-08T10:00:44.717Z,2302
2024-02-08T10:01:44.457Z,2302
2024-02-08T10:02:44.359Z,4496
2024-02-08T10:03:44.413Z,4496
2024-02-08T10:04:44.412Z,4496
2024-02-08T10:05:44.375Z,4496
2024-02-08T10:06:44.440Z,4496
2024-02-08T10:07:44.440Z,7305
2024-02-08T10:08:44.366Z,7305
2024-02-08T10:09:44.384Z,7305
2024-02-08T10:10:44.409Z,7305
2024-02-08T10:11:44.370Z,7305
2024-02-08T10:12:44.419Z,9373
2024-02-08T10:13:44.371Z,9373
2024-02-08T10:14:44.389Z,9373
2024-02-08T10:15:44.374Z,9373
2024-02-08T10:16:44.526Z,9373
2024-02-08T10:17:44.408Z,4259
2024-02-08T10:18:44.432Z,4259
2024-02-08T10:19:44.493Z,4259
2024-02-08T10:20:44.385Z,4259
2024-02-08T10:21:44.385Z,4259
2024-02-08T10:22:44.382Z,3383
2024-02-08T10:23:44.389Z,3383
2024-02-08T10:24:44.388Z,3383
2024-02-08T10:25:44.393Z,3383
2024-02-08T10:26:44.442Z,3383
2024-02-08T10:27:44.401Z,3129
2024-02-08T10:28:44.395Z,3129
2024-02-08T10:29:44.398Z,3129
2024-02-08T10:30:44.400Z,3129
2024-02-08T10:31:44.410Z,3129
2024-02-08T10:32:44.420Z,4019
2024-02-08T10:33:44.415Z,4019
2024-02-08T10:34:44.484Z,4019
2024-02-08T10:35:44.410Z,4019
2024-02-08T10:36:44.406Z,4019
2024-02-08T10:37:44.414Z,2919
2024-02-08T10:38:44.414Z,2919
2024-02-08T10:39:44.408Z,2919
2024-02-08T10:40:44.412Z,2919
2024-02-08T10:41:44.407Z,2919
2024-02-08T10:42:44.446Z,3884
2024-02-08T10:43:44.418Z,3884
2024-02-08T10:44:44.410Z,3884
2024-02-08T10:45:44.417Z,3884
2024-02-08T10:46:44.441Z,3884
2024-02-08T10:47:44.878Z,3662
2024-02-08T10:48:44.486Z,3662
2024-02-08T10:49:44.727Z,3662
2024-02-08T10:50:44.473Z,3662
2024-02-08T10:51:44.410Z,3662
2024-02-08T10:52:44.423Z,3727
2024-02-08T10:53:44.465Z,3727
2024-02-08T10:54:44.741Z,3727
2024-02-08T10:55:44.437Z,3727
2024-02-08T10:56:44.418Z,3727
2024-02-08T10:57:44.419Z,2974
2024-02-08T10:58:44.453Z,2974
2024-02-08T10:59:44.418Z,2974
2024-02-08T11:00:44.482Z,2974
2024-02-08T11:01:44.460Z,2974
2024-02-08T11:02:44.432Z,2798
2024-02-08T11:03:44.417Z,2798
2024-02-08T11:04:44.494Z,2798
2024-02-08T11:05:44.460Z,2798
2024-02-08T11:06:44.457Z,2798
2024-02-08T11:07:44.435Z,2841
2024-02-08T11:08:44.429Z,2841
2024-02-08T11:09:44.423Z,2841
2024-02-08T11:10:44.441Z,2841
2024-02-08T11:11:44.433Z,2841
2024-02-08T11:12:44.435Z,3950
2024-02-08T11:13:44.520Z,3950
2024-02-08T11:14:44.470Z,3950
2024-02-08T11:15:44.434Z,3950
2024-02-08T11:16:44.459Z,3950
2024-02-08T11:17:44.522Z,3029
2024-02-08T11:18:44.435Z,3029
2024-02-08T11:19:44.498Z,3029
2024-02-08T11:20:44.584Z,3029
2024-02-08T11:21:45.168Z,3029
2024-02-08T11:22:44.475Z,2915
2024-02-08T11:23:44.441Z,2915
2024-02-08T11:24:44.440Z,2915
2024-02-08T11:25:44.446Z,2915
2024-02-08T11:26:44.494Z,2915
2024-02-08T11:27:44.451Z,2915
2024-02-08T11:28:44.449Z,2915
2024-02-08T11:29:44.448Z,2915
2024-02-08T11:30:44.473Z,2915
2024-02-08T11:31:44.477Z,2915
2024-02-08T11:32:44.470Z,8782
2024-02-08T11:33:44.459Z,8782
2024-02-08T11:34:44.488Z,8782
2024-02-08T11:35:44.453Z,8782
2024-02-08T11:36:44.458Z,8782
2024-02-08T11:37:44.484Z,8140
2024-02-08T11:38:44.452Z,8140
2024-02-08T11:39:44.454Z,8140
2024-02-08T11:40:44.453Z,8140
2024-02-08T11:41:44.482Z,8140
2024-02-08T11:42:44.466Z,3384
2024-02-08T11:43:44.481Z,3384
2024-02-08T11:44:44.462Z,3384
2024-02-08T11:45:45.362Z,3384
2024-02-08T11:46:44.504Z,3384
2024-02-08T11:47:44.513Z,8422
2024-02-08T11:48:44.480Z,8422
2024-02-08T11:49:44.482Z,8422
2024-02-08T11:50:44.464Z,8422
2024-02-08T11:51:44.465Z,8422
2024-02-08T11:52:44.484Z,2819
2024-02-08T11:53:44.465Z,2819
2024-02-08T11:54:44.472Z,2819
2024-02-08T11:55:44.501Z,2819
2024-02-08T11:56:44.465Z,2819
2024-02-08T11:57:44.472Z,2241
2024-02-08T11:58:44.499Z,2241
2024-02-08T11:59:44.471Z,2241
2024-02-08T12:00:44.493Z,2241
2024-02-08T12:01:44.542Z,2241
2024-02-08T12:02:44.500Z,3256
2024-02-08T12:03:44.630Z,3256
2024-02-08T12:04:44.530Z,3256
2024-02-08T12:05:44.490Z,3256
2024-02-08T12:06:44.568Z,3256
2024-02-08T12:07:44.487Z,3597
2024-02-08T12:08:46.741Z,3597
2024-02-08T12:09:44.483Z,3597
2024-02-08T12:10:44.528Z,3597
2024-02-08T12:11:44.583Z,3597
2024-02-08T12:12:44.500Z,8626
2024-02-08T12:13:44.506Z,8626
2024-02-08T12:14:44.484Z,8626
2024-02-08T12:15:44.486Z,8626
2024-02-08T12:16:44.503Z,8626
2024-02-08T12:17:44.502Z,7630
2024-02-08T12:18:44.613Z,7630
2024-02-08T12:19:44.577Z,7630
2024-02-08T12:20:44.492Z,7630
2024-02-08T12:21:45.037Z,7630
2024-02-08T12:22:44.487Z,6452
2024-02-08T12:23:44.492Z,6452
2024-02-08T12:24:44.495Z,6452
2024-02-08T12:25:44.600Z,6452
2024-02-08T12:26:44.494Z,6452
2024-02-08T12:27:44.492Z,5110
2024-02-08T12:28:44.536Z,5110
2024-02-08T12:29:44.492Z,5110
2024-02-08T12:30:44.488Z,5110
2024-02-08T12:31:44.521Z,5110
2024-02-08T12:32:44.543Z,6742
2024-02-08T12:33:44.525Z,6742
2024-02-08T12:34:44.573Z,6742
2024-02-08T12:35:44.520Z,6742
2024-02-08T12:36:44.501Z,6742
2024-02-08T12:37:44.521Z,8506
2024-02-08T12:38:44.501Z,8506
2024-02-08T12:39:44.512Z,8506
2024-02-08T12:40:44.539Z,8506
2024-02-08T12:41:44.496Z,8506
2024-02-08T12:42:44.505Z,2067
2024-02-08T12:43:44.528Z,2067
2024-02-08T12:44:44.504Z,2067
2024-02-08T12:45:44.501Z,2067
2024-02-08T12:46:44.501Z,2067
2024-02-08T12:47:44.553Z,1891
2024-02-08T12:48:44.518Z,1891
2024-02-08T12:49:44.658Z,1891
2024-02-08T12:50:44.568Z,1891
2024-02-08T12:51:44.511Z,1891
2024-02-08T12:52:44.514Z,1904
2024-02-08T12:53:44.521Z,1904
2024-02-08T12:54:44.508Z,1904
2024-02-08T12:55:44.543Z,1904
2024-02-08T12:56:44.516Z,1904
2024-02-08T12:57:44.514Z,2638
2024-02-08T12:58:44.514Z,2638
2024-02-08T12:59:44.516Z,2638
2024-02-08T13:00:44.538Z,2638
2024-02-08T13:01:44.555Z,2638
2024-02-08T13:02:44.520Z,4586
2024-02-08T13:03:44.525Z,4586
2024-02-08T13:04:44.581Z,4586
2024-02-08T13:05:44.591Z,4586
2024-02-08T13:06:44.629Z,4586
2024-02-08T13:07:44.594Z,7630
2024-02-08T13:08:44.595Z,7630
2024-02-08T13:09:44.521Z,7630
2024-02-08T13:10:44.568Z,7630
2024-02-08T13:11:44.517Z,7630
2024-02-08T13:12:44.522Z,2339
2024-02-08T13:13:44.583Z,2339
2024-02-08T13:14:44.519Z,2339
2024-02-08T13:15:44.843Z,2339
2024-02-08T13:16:44.552Z,2339
2024-02-08T13:17:44.532Z,2432
2024-02-08T13:18:44.602Z,2432
2024-02-08T13:19:44.610Z,2432
2024-02-08T13:20:44.973Z,2432
2024-02-08T13:21:44.528Z,2432
2024-02-08T13:22:44.594Z,2981
2024-02-08T13:23:44.518Z,2981
2024-02-08T13:24:44.521Z,2981
2024-02-08T13:25:44.966Z,2981
2024-02-08T13:26:44.523Z,2981
2024-02-08T13:27:44.526Z,1948
2024-02-08T13:28:44.558Z,1948
2024-02-08T13:29:44.523Z,1948
2024-02-08T13:30:44.524Z,1948
2024-02-08T13:31:44.629Z,1948
2024-02-08T13:32:44.543Z,2084
2024-02-08T13:33:44.588Z,2084
2024-02-08T13:34:44.587Z,2084
2024-02-08T13:35:44.637Z,2084
2024-02-08T13:36:44.527Z,2084
2024-02-08T13:37:44.603Z,1917
2024-02-08T13:38:44.544Z,1917
2024-02-08T13:39:44.541Z,1917
2024-02-08T13:40:45.031Z,1917
2024-02-08T13:41:44.518Z,1917
2024-02-08T13:42:48.640Z,2972
2024-02-08T13:43:44.552Z,2972
2024-02-08T13:44:44.555Z,2972
2024-02-08T13:45:44.579Z,2972
2024-02-08T13:46:44.552Z,2972
2024-02-08T13:47:44.676Z,1330
2024-02-08T13:48:44.672Z,1330
2024-02-08T13:49:44.659Z,1330
2024-02-08T13:50:44.770Z,1330
2024-02-08T13:51:47.254Z,1330
2024-02-08T13:52:44.553Z,1384
2024-02-08T13:53:44.525Z,1384
2024-02-08T13:54:44.557Z,1384
2024-02-08T13:55:46.620Z,1384
2024-02-08T13:56:44.533Z,1384
2024-02-08T13:57:44.527Z,1404
2024-02-08T13:58:44.597Z,1404
2024-02-08T13:59:44.530Z,1404
2024-02-08T14:00:44.590Z,1404
2024-02-08T14:01:44.702Z,1404
2024-02-08T14:02:44.559Z,1028
2024-02-08T14:03:44.540Z,1028